createdAt,value
2023-04-11T00:00:11.148Z,86.32
2023-04-11T00:01:11.192Z,83.64
2023-04-11T00:02:11.240Z,86.85
2023-04-11T00:03:11.724Z,88.16
2023-04-11T00:04:11.289Z,89.80
2023-04-11T00:05:11.120Z,88.07
2023-04-11T00:06:11.164Z,91.95
2023-04-11T00:07:11.127Z,92.14
2023-04-11T00:08:11.113Z,92.46
2023-04-11T00:09:11.197Z,90.24
2023-04-11T00:10:11.506Z,94.42
2023-04-11T00:11:11.162Z,93.51
2023-04-11T00:12:11.060Z,96.82
2023-04-11T00:13:11.124Z,96.36
2023-04-11T00:14:11.015Z,96.62
2023-04-11T00:15:11.092Z,97.68
2023-04-11T00:16:11.104Z,98.92
2023-04-11T00:17:11.094Z,99.03
2023-04-11T00:18:11.003Z,98.28
2023-04-11T00:19:10.965Z,99.93
2023-04-11T00:20:10.994Z,97.39
2023-04-11T00:21:11.061Z,99.89
2023-04-11T00:22:10.935Z,101.72
2023-04-11T00:23:11.053Z,99.68
2023-04-11T00:24:11.017Z,102.08
2023-04-11T00:25:10.945Z,102.29
2023-04-11T00:26:11.130Z,102.88
2023-04-11T00:27:10.981Z,103.40
2023-04-11T00:28:11.031Z,103.89
2023-04-11T00:29:10.991Z,105.22
2023-04-11T00:30:10.885Z,105.55
2023-04-11T00:31:10.981Z,104.75
2023-04-11T00:32:10.921Z,105.49
2023-04-11T00:33:10.989Z,106.48
2023-04-11T00:34:10.882Z,104.83
2023-04-11T00:35:10.843Z,106.12
2023-04-11T00:36:11.052Z,107.24
2023-04-11T00:37:10.980Z,108.18
2023-04-11T00:38:10.819Z,107.20
2023-04-11T00:39:10.849Z,108.24
2023-04-11T00:40:10.844Z,109.22
2023-04-11T00:41:10.846Z,109.38
2023-04-11T00:42:10.818Z,109.10
2023-04-11T00:43:10.803Z,108.98
2023-04-11T00:44:10.878Z,111.41
2023-04-11T00:45:10.890Z,108.94
2023-04-11T00:46:10.821Z,110.95
2023-04-11T00:47:10.776Z,110.35
2023-04-11T00:48:10.905Z,111.87
2023-04-11T00:49:10.731Z,111.72
2023-04-11T00:50:10.842Z,111.94
2023-04-11T00:51:10.864Z,112.49
2023-04-11T00:52:10.715Z,112.79
2023-04-11T00:53:10.840Z,112.63
2023-04-11T00:54:10.730Z,112.68
2023-04-11T00:55:10.842Z,112.83
2023-04-11T00:56:10.700Z,111.96
2023-04-11T00:57:10.787Z,113.60
2023-04-11T00:58:10.659Z,113.48
2023-04-11T00:59:10.695Z,114.10
2023-04-11T01:00:10.820Z,113.48
2023-04-11T01:01:10.797Z,113.97
2023-04-11T01:02:10.778Z,114.90
2023-04-11T01:03:10.821Z,113.13
2023-04-11T01:04:10.948Z,115.29
2023-04-11T01:05:10.755Z,113.31
2023-04-11T01:06:10.650Z,116.28
2023-04-11T01:07:10.744Z,113.67
2023-04-11T01:08:10.637Z,115.70
2023-04-11T01:09:10.733Z,115.09
2023-04-11T01:10:10.646Z,115.89
2023-04-11T01:11:10.712Z,115.78
2023-04-11T01:12:10.588Z,115.62
2023-04-11T01:13:10.626Z,117.63
2023-04-11T01:14:10.602Z,117.07
2023-04-11T01:15:10.590Z,117.34
2023-04-11T01:16:10.660Z,117.56
2023-04-11T01:17:10.919Z,117.71
2023-04-11T01:18:10.740Z,117.31
2023-04-11T01:19:10.704Z,115.99
2023-04-11T01:20:10.637Z,117.11
2023-04-11T01:21:10.639Z,117.27
2023-04-11T01:22:10.612Z,117.09
2023-04-11T01:23:10.650Z,118.00
2023-04-11T01:24:10.656Z,118.16
2023-04-11T01:25:10.637Z,117.88
2023-04-11T01:26:10.712Z,118.23
2023-04-11T01:27:10.760Z,116.85
2023-04-11T01:28:10.791Z,117.66
2023-04-11T01:29:10.669Z,117.59
2023-04-11T01:30:10.778Z,117.61
2023-04-11T01:31:10.738Z,117.30
2023-04-11T01:32:10.650Z,117.74
2023-04-11T01:33:11.031Z,117.98
2023-04-11T01:34:10.809Z,116.72
2023-04-11T01:35:10.716Z,116.61
2023-04-11T01:36:10.747Z,116.98
2023-04-11T01:37:10.861Z,116.67
2023-04-11T01:38:10.729Z,117.28
2023-04-11T01:39:10.743Z,118.05
2023-04-11T01:40:10.867Z,116.73
2023-04-11T01:41:10.780Z,117.37
2023-04-11T01:42:10.789Z,117.43
2023-04-11T01:43:10.899Z,117.11
2023-04-11T01:44:10.814Z,118.00
2023-04-11T01:45:10.808Z,116.82
2023-04-11T01:46:10.823Z,117.50
2023-04-11T01:47:10.952Z,117.88
2023-04-11T01:48:11.017Z,118.17
2023-04-11T01:49:10.972Z,118.04
2023-04-11T01:50:10.908Z,119.16
2023-04-11T01:51:11.015Z,118.45
2023-04-11T01:52:10.930Z,119.31
2023-04-11T01:53:11.138Z,118.10
2023-04-11T01:54:10.937Z,118.22
2023-04-11T01:55:10.904Z,119.78
2023-04-11T01:56:11.048Z,119.91
2023-04-11T01:57:11.093Z,118.69
2023-04-11T01:58:11.073Z,118.41
2023-04-11T01:59:11.105Z,120.07
2023-04-11T02:00:11.013Z,119.46
2023-04-11T02:01:11.133Z,119.42
2023-04-11T02:02:11.191Z,119.25
2023-04-11T02:03:11.163Z,119.70
2023-04-11T02:04:11.139Z,119.19
2023-04-11T02:05:11.026Z,120.34
2023-04-11T02:06:11.021Z,120.35
2023-04-11T02:07:10.993Z,119.30
2023-04-11T02:08:11.035Z,118.14
2023-04-11T02:09:11.036Z,119.96
2023-04-11T02:10:11.001Z,121.31
2023-04-11T02:11:11.061Z,119.70
2023-04-11T02:12:11.082Z,120.61
2023-04-11T02:13:11.061Z,118.75
2023-04-11T02:14:11.081Z,118.61
2023-04-11T02:15:11.087Z,120.74
2023-04-11T02:16:11.133Z,120.43
2023-04-11T02:17:11.106Z,120.97
2023-04-11T02:18:11.133Z,119.33
2023-04-11T02:19:11.136Z,120.84
2023-04-11T02:20:11.148Z,120.18
2023-04-11T02:21:11.175Z,120.06
2023-04-11T02:22:11.161Z,119.35
2023-04-11T02:23:11.195Z,119.56
2023-04-11T02:24:11.183Z,122.11
2023-04-11T02:25:11.211Z,120.49
2023-04-11T02:26:11.285Z,119.37
2023-04-11T02:27:11.266Z,119.68
2023-04-11T02:28:11.275Z,119.83
2023-04-11T02:29:11.274Z,119.18
2023-04-11T02:30:11.331Z,121.28
2023-04-11T02:31:11.527Z,119.92
2023-04-11T02:32:11.490Z,119.79
2023-04-11T02:33:11.375Z,120.17
2023-04-11T02:34:11.380Z,119.12
2023-04-11T02:35:11.388Z,119.54
2023-04-11T02:36:11.436Z,120.22
2023-04-11T02:37:11.445Z,119.64
2023-04-11T02:38:11.480Z,120.58
2023-04-11T02:39:11.449Z,120.00
2023-04-11T02:40:11.469Z,119.78
2023-04-11T02:41:11.552Z,119.60
2023-04-11T02:42:11.525Z,120.01
2023-04-11T02:43:11.586Z,118.33
2023-04-11T02:44:11.581Z,120.82
2023-04-11T02:45:11.601Z,119.94
2023-04-11T02:46:13.347Z,119.34
2023-04-11T02:47:11.744Z,119.51
2023-04-11T02:48:11.646Z,119.57
2023-04-11T02:49:11.727Z,119.77
2023-04-11T02:50:11.735Z,119.99
2023-04-11T02:51:11.737Z,119.65
2023-04-11T02:52:11.785Z,120.06
2023-04-11T02:53:11.792Z,120.69
2023-04-11T02:54:11.842Z,119.67
2023-04-11T02:55:11.869Z,120.33
2023-04-11T02:56:11.855Z,120.15
2023-04-11T02:57:11.872Z,120.44
2023-04-11T02:58:11.890Z,121.24
2023-04-11T02:59:11.939Z,121.32
2023-04-11T03:00:11.936Z,121.79
2023-04-11T03:01:12.100Z,120.48
2023-04-11T03:02:12.233Z,121.91
2023-04-11T03:03:12.142Z,120.05
2023-04-11T03:04:12.066Z,121.42
2023-04-11T03:05:12.073Z,120.80
2023-04-11T03:06:12.099Z,120.47
2023-04-11T03:07:12.087Z,120.13
2023-04-11T03:08:12.122Z,119.98
2023-04-11T03:09:12.168Z,121.57
2023-04-11T03:10:12.177Z,119.59
2023-04-11T03:11:12.184Z,120.94
2023-04-11T03:12:12.195Z,119.27
2023-04-11T03:13:12.218Z,119.81
2023-04-11T03:14:12.333Z,120.37
2023-04-11T03:15:12.302Z,119.60
2023-04-11T03:16:12.331Z,119.40
2023-04-11T03:17:12.364Z,118.78
2023-04-11T03:18:12.376Z,118.41
2023-04-11T03:19:12.385Z,117.92
2023-04-11T03:20:12.398Z,118.17
2023-04-11T03:21:12.458Z,117.12
2023-04-11T03:22:12.463Z,117.48
2023-04-11T03:23:12.571Z,118.59
2023-04-11T03:24:12.474Z,118.31
2023-04-11T03:25:12.527Z,117.95
2023-04-11T03:26:12.597Z,118.24
2023-04-11T03:27:12.595Z,118.59
2023-04-11T03:28:12.611Z,118.07
2023-04-11T03:29:12.644Z,117.07
2023-04-11T03:30:12.654Z,118.52
2023-04-11T03:31:12.760Z,117.79
2023-04-11T03:32:12.727Z,117.00
2023-04-11T03:33:12.775Z,117.39
2023-04-11T03:34:12.782Z,118.17
2023-04-11T03:35:12.831Z,118.30
2023-04-11T03:36:12.956Z,117.15
2023-04-11T03:37:12.908Z,118.92
2023-04-11T03:38:13.072Z,118.18
2023-04-11T03:39:12.995Z,118.21
2023-04-11T03:40:13.021Z,119.02
2023-04-11T03:41:13.083Z,118.76
2023-04-11T03:42:13.128Z,118.68
2023-04-11T03:43:13.168Z,118.84
2023-04-11T03:44:13.234Z,119.69
2023-04-11T03:45:13.235Z,118.66
2023-04-11T03:46:13.355Z,119.42
2023-04-11T03:47:13.352Z,118.50
2023-04-11T03:48:13.391Z,119.99
2023-04-11T03:49:13.410Z,119.18
2023-04-11T03:50:13.490Z,121.42
2023-04-11T03:51:13.543Z,119.09
2023-04-11T03:52:13.520Z,120.46
2023-04-11T03:53:13.615Z,119.46
2023-04-11T03:54:13.609Z,118.55
2023-04-11T03:55:13.655Z,117.34
2023-04-11T03:56:13.684Z,119.52
2023-04-11T03:57:13.725Z,119.57
2023-04-11T03:58:13.782Z,122.81
2023-04-11T03:59:13.871Z,120.97
2023-04-11T04:00:13.858Z,118.48
2023-04-11T04:01:13.904Z,120.17
2023-04-11T04:02:14.974Z,120.56
2023-04-11T04:03:14.145Z,116.38
2023-04-11T04:04:14.052Z,109.95
2023-04-11T04:05:14.093Z,100.91
2023-04-11T04:06:14.060Z,92.71
2023-04-11T04:07:14.098Z,85.54
2023-04-11T04:08:14.155Z,84.66
2023-04-11T04:09:14.152Z,78.59
2023-04-11T04:10:14.215Z,74.45
2023-04-11T04:11:14.268Z,69.20
2023-04-11T04:12:14.339Z,62.32
2023-04-11T04:13:14.391Z,58.13
2023-04-11T04:14:14.455Z,51.80
2023-04-11T04:15:14.523Z,46.68
2023-04-11T04:16:14.644Z,41.16
2023-04-11T04:17:14.685Z,33.37
2023-04-11T04:18:14.661Z,32.23
2023-04-11T04:19:14.685Z,27.36
2023-04-11T04:20:14.744Z,25.00
2023-04-11T04:21:14.731Z,27.75
2023-04-11T04:22:14.762Z,26.70
2023-04-11T04:23:14.769Z,25.00
2023-04-11T04:24:14.769Z,27.55
2023-04-11T04:25:14.786Z,25.04
2023-04-11T04:26:14.833Z,26.57
2023-04-11T04:27:14.770Z,25.00
2023-04-11T04:28:14.788Z,27.60
2023-04-11T04:29:14.817Z,26.51
2023-04-11T04:30:14.821Z,27.53
2023-04-11T04:31:14.845Z,25.12
2023-04-11T04:32:14.826Z,26.04
2023-04-11T04:33:14.848Z,30.31
2023-04-11T04:34:14.792Z,29.24
2023-04-11T04:35:14.793Z,30.11
2023-04-11T04:36:14.794Z,29.00
2023-04-11T04:37:14.818Z,30.88
2023-04-11T04:38:14.819Z,31.96
2023-04-11T04:39:14.827Z,32.57
2023-04-11T04:40:14.851Z,33.28
2023-04-11T04:41:14.975Z,31.80
2023-04-11T04:42:14.903Z,35.33
2023-04-11T04:43:14.998Z,35.62
2023-04-11T04:44:15.062Z,34.17
2023-04-11T04:45:15.063Z,35.66
2023-04-11T04:46:15.205Z,38.25
2023-04-11T04:47:15.228Z,38.93
2023-04-11T04:48:15.307Z,37.72
2023-04-11T04:49:15.336Z,40.52
2023-04-11T04:50:15.428Z,39.44
2023-04-11T04:51:15.459Z,40.78
2023-04-11T04:52:15.537Z,39.84
2023-04-11T04:53:15.573Z,40.00
2023-04-11T04:54:15.640Z,41.92
2023-04-11T04:55:15.707Z,44.89
2023-04-11T04:56:15.775Z,42.65
2023-04-11T04:57:15.814Z,46.71
2023-04-11T04:58:15.881Z,42.48
2023-04-11T04:59:15.936Z,43.00
2023-04-11T05:00:15.994Z,45.04
2023-04-11T05:01:16.124Z,47.93
2023-04-11T05:02:16.170Z,44.30
2023-04-11T05:03:16.365Z,45.87
2023-04-11T05:04:16.409Z,45.79
2023-04-11T05:05:16.265Z,49.99
2023-04-11T05:06:17.017Z,47.68
2023-04-11T05:07:16.450Z,49.20
2023-04-11T05:08:16.459Z,49.87
2023-04-11T05:09:16.518Z,49.87
2023-04-11T05:10:16.611Z,49.92
2023-04-11T05:11:16.629Z,49.31
2023-04-11T05:12:16.728Z,52.35
2023-04-11T05:13:16.792Z,49.61
2023-04-11T05:14:16.841Z,50.55
2023-04-11T05:15:16.908Z,54.75
2023-04-11T05:16:16.974Z,50.22
2023-04-11T05:17:17.027Z,53.44
2023-04-11T05:18:17.107Z,52.26
2023-04-11T05:19:17.143Z,52.39
2023-04-11T05:20:17.218Z,54.15
2023-04-11T05:21:17.262Z,52.16
2023-04-11T05:22:17.368Z,56.48
2023-04-11T05:23:17.428Z,58.90
2023-04-11T05:24:17.496Z,54.80
2023-04-11T05:25:17.535Z,54.38
2023-04-11T05:26:17.591Z,56.45
2023-04-11T05:27:17.659Z,53.24
2023-04-11T05:28:17.714Z,53.81
2023-04-11T05:29:17.779Z,57.30
2023-04-11T05:30:17.846Z,55.97
2023-04-11T05:31:18.028Z,55.68
2023-04-11T05:32:17.956Z,56.49
2023-04-11T05:33:18.003Z,58.40
2023-04-11T05:34:18.055Z,57.12
2023-04-11T05:35:18.184Z,53.79
2023-04-11T05:36:18.238Z,54.51
2023-04-11T05:37:18.299Z,56.19
2023-04-11T05:38:18.294Z,57.20
2023-04-11T05:39:18.368Z,56.30
2023-04-11T05:40:18.416Z,53.81
2023-04-11T05:41:18.418Z,53.30
2023-04-11T05:42:18.494Z,50.35
2023-04-11T05:43:18.464Z,49.66
2023-04-11T05:44:18.498Z,38.82
2023-04-11T05:45:18.666Z,35.82
2023-04-11T05:46:18.480Z,33.71
2023-04-11T05:47:18.575Z,31.21
2023-04-11T05:48:18.473Z,24.43
2023-04-11T05:49:18.524Z,25.00
2023-04-11T05:50:18.486Z,29.69
2023-04-11T05:51:18.496Z,32.71
2023-04-11T05:52:18.532Z,34.88
2023-04-11T05:53:18.451Z,38.83
2023-04-11T05:54:18.512Z,44.14
2023-04-11T05:55:18.522Z,44.72
2023-04-11T05:56:18.486Z,47.32
2023-04-11T05:57:18.541Z,41.46
2023-04-11T05:58:25.122Z,33.59
2023-04-11T05:59:23.906Z,33.69
2023-04-11T06:00:19.579Z,33.75
2023-04-11T06:01:18.691Z,27.05
2023-04-11T06:02:18.669Z,27.80
2023-04-11T06:03:18.610Z,27.40
2023-04-11T06:04:18.629Z,26.31
2023-04-11T06:05:19.540Z,23.55
2023-04-11T06:06:18.503Z,11.98
2023-04-11T06:07:18.517Z,9.72
2023-04-11T06:08:18.631Z,4.03
2023-04-11T06:09:18.722Z,0.00
2023-04-11T06:10:18.454Z,23.59
2023-04-11T06:11:18.453Z,29.12
2023-04-11T06:12:18.487Z,25.19
2023-04-11T06:13:18.433Z,25.06
2023-04-11T06:14:18.492Z,28.79
2023-04-11T06:15:18.546Z,28.74
2023-04-11T06:16:18.598Z,28.79
2023-04-11T06:17:18.641Z,25.00
2023-04-11T06:18:18.707Z,25.53
2023-04-11T06:19:18.726Z,25.00
2023-04-11T06:20:18.808Z,26.23
2023-04-11T06:21:18.843Z,28.82
2023-04-11T06:22:18.903Z,26.94
2023-04-11T06:23:18.916Z,28.11
2023-04-11T06:24:18.951Z,27.24
2023-04-11T06:25:18.985Z,28.05
2023-04-11T06:26:19.036Z,29.38
2023-04-11T06:27:19.050Z,28.61
2023-04-11T06:28:19.041Z,34.90
2023-04-11T06:29:19.058Z,30.92
2023-04-11T06:30:19.069Z,32.56
2023-04-11T06:31:19.047Z,36.56
2023-04-11T06:32:19.025Z,34.16
2023-04-11T06:33:19.035Z,36.43
2023-04-11T06:34:18.993Z,39.83
2023-04-11T06:35:19.000Z,43.36
2023-04-11T06:36:19.254Z,44.77
2023-04-11T06:37:19.114Z,49.45
2023-04-11T06:38:19.146Z,49.70
2023-04-11T06:39:19.195Z,52.23
2023-04-11T06:40:19.681Z,54.13
2023-04-11T06:41:19.298Z,54.72
2023-04-11T06:42:19.313Z,55.09
2023-04-11T06:43:19.366Z,58.93
2023-04-11T06:44:19.376Z,59.31
2023-04-11T06:45:19.542Z,63.80
2023-04-11T06:46:19.507Z,61.01
2023-04-11T06:47:19.614Z,64.54
2023-04-11T06:48:19.545Z,66.54
2023-04-11T06:49:19.563Z,63.62
2023-04-11T06:50:19.711Z,68.27
2023-04-11T06:51:19.720Z,68.74
2023-04-11T06:52:19.771Z,71.77
2023-04-11T06:53:19.832Z,71.08
2023-04-11T06:54:19.910Z,71.56
2023-04-11T06:55:20.154Z,71.68
2023-04-11T06:56:20.021Z,73.99
2023-04-11T06:57:20.072Z,70.00
2023-04-11T06:58:20.169Z,72.21
2023-04-11T06:59:20.179Z,75.24
2023-04-11T07:00:20.221Z,71.77
2023-04-11T07:01:20.334Z,77.48
2023-04-11T07:02:20.517Z,76.04
2023-04-11T07:03:20.514Z,74.84
2023-04-11T07:04:20.678Z,78.04
2023-04-11T07:05:20.564Z,78.40
2023-04-11T07:06:20.583Z,82.53
2023-04-11T07:07:20.663Z,83.31
2023-04-11T07:08:20.688Z,85.23
2023-04-11T07:09:20.748Z,86.67
2023-04-11T07:10:20.794Z,82.36
2023-04-11T07:11:20.832Z,85.55
2023-04-11T07:12:20.922Z,83.29
2023-04-11T07:13:20.987Z,90.58
2023-04-11T07:14:21.032Z,88.94
2023-04-11T07:15:21.056Z,93.97
2023-04-11T07:16:21.153Z,94.30
2023-04-11T07:17:21.120Z,96.77
2023-04-11T07:18:21.133Z,100.60
2023-04-11T07:19:21.133Z,99.12
2023-04-11T07:20:21.195Z,99.98
2023-04-11T07:21:21.203Z,102.77
2023-04-11T07:22:21.202Z,104.64
2023-04-11T07:23:23.476Z,104.32
2023-04-11T07:24:21.383Z,105.03
2023-04-11T07:25:21.343Z,105.65
2023-04-11T07:26:21.388Z,109.24
2023-04-11T07:27:21.409Z,109.54
2023-04-11T07:28:21.443Z,106.48
2023-04-11T07:29:21.440Z,108.97
2023-04-11T07:30:21.461Z,113.36
2023-04-11T07:31:21.766Z,110.20
2023-04-11T07:32:21.779Z,110.33
2023-04-11T07:33:21.549Z,95.23
2023-04-11T07:34:21.558Z,89.72
2023-04-11T07:35:21.586Z,71.93
2023-04-11T07:36:21.670Z,64.92
2023-04-11T07:37:21.662Z,65.22
2023-04-11T07:38:21.694Z,49.67
2023-04-11T07:39:21.615Z,47.45
2023-04-11T07:40:21.699Z,58.93
2023-04-11T07:41:21.634Z,53.86
2023-04-11T07:42:21.621Z,55.24
2023-04-11T07:43:21.639Z,55.54
2023-04-11T07:44:22.202Z,58.71
2023-04-11T07:45:21.762Z,55.19
2023-04-11T07:46:21.762Z,58.85
2023-04-11T07:47:21.881Z,58.13
2023-04-11T07:48:21.895Z,60.47
2023-04-11T07:49:21.973Z,35.71
2023-04-11T07:50:21.969Z,21.83
2023-04-11T07:51:22.014Z,25.00
2023-04-11T07:52:22.012Z,27.41
2023-04-11T07:53:22.017Z,36.05
2023-04-11T07:54:22.034Z,47.53
2023-04-11T07:55:22.126Z,57.49
2023-04-11T07:56:22.157Z,67.63
2023-04-11T07:57:22.159Z,81.66
2023-04-11T07:58:22.167Z,85.66
2023-04-11T07:59:22.165Z,89.26
2023-04-11T08:00:22.214Z,95.83
2023-04-11T08:01:22.245Z,103.26
2023-04-11T08:02:22.454Z,109.13
2023-04-11T08:03:22.487Z,110.79
2023-04-11T08:04:22.560Z,114.92
2023-04-11T08:05:22.445Z,120.36
2023-04-11T08:06:22.541Z,124.94
2023-04-11T08:07:22.511Z,130.92
2023-04-11T08:08:22.565Z,132.82
2023-04-11T08:09:22.705Z,135.23
2023-04-11T08:10:22.615Z,131.39
2023-04-11T08:11:22.620Z,125.55
2023-04-11T08:12:22.680Z,112.01
2023-04-11T08:13:22.671Z,104.23
2023-04-11T08:14:22.744Z,101.26
2023-04-11T08:15:22.747Z,111.86
2023-04-11T08:16:22.744Z,113.16
2023-04-11T08:17:28.066Z,108.52
2023-04-11T08:18:23.813Z,108.99
2023-04-11T08:19:22.793Z,110.40
2023-04-11T08:20:22.738Z,112.44
2023-04-11T08:21:22.741Z,118.73
2023-04-11T08:22:22.738Z,120.55
2023-04-11T08:23:22.814Z,121.15
2023-04-11T08:24:22.808Z,118.88
2023-04-11T08:25:22.894Z,119.36
2023-04-11T08:26:22.880Z,122.48
2023-04-11T08:27:22.869Z,130.31
2023-04-11T08:28:23.278Z,127.54
2023-04-11T08:29:22.951Z,118.89
2023-04-11T08:30:22.961Z,121.42
2023-04-11T08:31:23.071Z,118.94
2023-04-11T08:32:24.569Z,127.02
2023-04-11T08:33:23.073Z,126.86
2023-04-11T08:34:23.158Z,128.79
2023-04-11T08:35:23.138Z,130.14
2023-04-11T08:36:23.201Z,129.12
2023-04-11T08:37:23.253Z,128.55
2023-04-11T08:38:23.291Z,128.45
2023-04-11T08:39:23.376Z,130.09
2023-04-11T08:40:24.559Z,126.90
2023-04-11T08:41:23.748Z,140.19
2023-04-11T08:42:23.585Z,137.33
2023-04-11T08:43:23.579Z,130.75
2023-04-11T08:44:23.601Z,106.90
2023-04-11T08:45:23.582Z,115.37
2023-04-11T08:46:23.830Z,101.95
2023-04-11T08:47:23.674Z,84.11
2023-04-11T08:48:23.651Z,84.32
2023-04-11T08:49:23.631Z,92.50
2023-04-11T08:50:23.654Z,91.77
2023-04-11T08:51:23.619Z,101.31
2023-04-11T08:52:23.653Z,111.87
2023-04-11T08:53:23.751Z,117.62
2023-04-11T08:54:23.665Z,117.46
2023-04-11T08:55:23.739Z,124.04
2023-04-11T08:56:23.784Z,134.18
2023-04-11T08:57:23.832Z,137.85
2023-04-11T08:58:23.895Z,139.89
2023-04-11T08:59:23.968Z,143.61
2023-04-11T09:00:24.081Z,149.34
2023-04-11T09:01:24.042Z,151.50
2023-04-11T09:02:24.249Z,152.70
2023-04-11T09:03:24.246Z,154.14
2023-04-11T09:04:24.112Z,153.80
2023-04-11T09:05:24.111Z,158.42
2023-04-11T09:06:24.163Z,162.32
2023-04-11T09:07:24.150Z,165.28
2023-04-11T09:08:24.236Z,166.18
2023-04-11T09:09:24.246Z,169.70
2023-04-11T09:10:24.278Z,172.69
2023-04-11T09:11:24.779Z,174.45
2023-04-11T09:12:24.260Z,178.43
2023-04-11T09:13:24.373Z,182.37
2023-04-11T09:14:24.305Z,185.04
2023-04-11T09:15:24.341Z,187.77
2023-04-11T09:16:24.349Z,188.58
2023-04-11T09:17:24.341Z,189.94
2023-04-11T09:18:24.307Z,191.53
2023-04-11T09:19:24.319Z,196.39
2023-04-11T09:20:24.722Z,197.67
2023-04-11T09:21:24.343Z,204.82
2023-04-11T09:22:24.442Z,204.00
2023-04-11T09:23:27.176Z,211.04
2023-04-11T09:24:24.472Z,212.21
2023-04-11T09:25:24.475Z,213.92
2023-04-11T09:26:24.769Z,218.10
2023-04-11T09:27:24.474Z,218.53
2023-04-11T09:28:24.430Z,218.52
2023-04-11T09:29:24.416Z,220.26
2023-04-11T09:30:24.456Z,220.99
2023-04-11T09:31:24.432Z,223.46
2023-04-11T09:32:24.411Z,225.42
2023-04-11T09:33:24.468Z,226.46
2023-04-11T09:34:24.418Z,228.44
2023-04-11T09:35:24.426Z,227.26
2023-04-11T09:36:24.382Z,230.45
2023-04-11T09:37:24.345Z,230.08
2023-04-11T09:38:24.390Z,232.32
2023-04-11T09:39:24.350Z,237.47
2023-04-11T09:40:24.304Z,238.70
2023-04-11T09:41:24.465Z,242.19
2023-04-11T09:42:24.289Z,248.13
2023-04-11T09:43:24.378Z,250.00
2023-04-11T09:44:24.341Z,248.65
2023-04-11T09:45:24.342Z,249.00
2023-04-11T09:46:24.330Z,247.92
2023-04-11T09:47:24.327Z,250.00
2023-04-11T09:48:32.024Z,248.78
2023-04-11T09:49:25.266Z,249.14
2023-04-11T09:50:24.266Z,250.67
2023-04-11T09:52:24.282Z,264.08
2023-04-11T09:53:24.246Z,278.45
2023-04-11T09:54:24.255Z,260.88
2023-04-11T09:55:24.273Z,250.00
2023-04-11T09:56:24.217Z,249.30
2023-04-11T09:57:24.218Z,249.71
2023-04-11T09:58:24.217Z,249.86
2023-04-11T09:59:24.196Z,250.27
2023-04-11T10:00:24.260Z,249.33
2023-04-11T10:01:24.213Z,250.00
2023-04-11T10:02:24.228Z,250.10
2023-04-11T10:03:24.201Z,249.60
2023-04-11T10:04:24.184Z,249.43
2023-04-11T10:05:24.158Z,250.00
2023-04-11T10:06:24.160Z,250.00
2023-04-11T10:07:24.148Z,250.00
2023-04-11T10:08:24.135Z,250.00
2023-04-11T10:09:24.138Z,249.05
2023-04-11T10:10:24.142Z,250.00
2023-04-11T10:11:24.449Z,248.98
2023-04-11T10:12:24.163Z,249.91
2023-04-11T10:13:24.128Z,247.46
2023-04-11T10:14:24.107Z,248.09
2023-04-11T10:15:24.118Z,249.17
2023-04-11T10:16:24.153Z,250.00
2023-04-11T10:17:24.602Z,248.42
2023-04-11T10:18:24.052Z,247.83
2023-04-11T10:19:24.061Z,247.27
2023-04-11T10:20:24.061Z,250.00
2023-04-11T10:21:24.071Z,246.01
2023-04-11T10:22:24.129Z,247.65
2023-04-11T10:23:24.067Z,247.08
2023-04-11T10:24:24.030Z,247.70
2023-04-11T10:25:24.037Z,247.45
2023-04-11T10:26:24.047Z,247.73
2023-04-11T10:27:24.010Z,235.46
2023-04-11T10:28:23.991Z,224.17
2023-04-11T10:29:24.011Z,218.68
2023-04-11T10:30:23.997Z,206.85
2023-04-11T10:31:24.051Z,188.57
2023-04-11T10:32:24.007Z,186.35
2023-04-11T10:33:24.011Z,190.23
2023-04-11T10:34:23.946Z,185.42
2023-04-11T10:35:25.483Z,187.15
2023-04-11T10:36:24.392Z,182.99
2023-04-11T10:37:23.927Z,185.78
2023-04-11T10:38:23.942Z,186.12
2023-04-11T10:39:23.912Z,183.65
2023-04-11T10:40:23.958Z,179.69
2023-04-11T10:41:23.915Z,179.47
2023-04-11T10:42:23.890Z,178.72
2023-04-11T10:43:23.913Z,177.39
2023-04-11T10:44:23.916Z,177.56
2023-04-11T10:45:23.863Z,176.20
2023-04-11T10:46:23.912Z,177.10
2023-04-11T10:47:23.906Z,175.88
2023-04-11T10:48:23.910Z,175.74
2023-04-11T10:49:23.845Z,175.18
2023-04-11T10:50:24.216Z,178.68
2023-04-11T10:51:23.863Z,177.99
2023-04-11T10:52:23.990Z,182.59
2023-04-11T10:53:23.852Z,184.98
2023-04-11T10:54:23.838Z,185.81
2023-04-11T10:55:23.843Z,191.94
2023-04-11T10:56:23.812Z,197.02
2023-04-11T10:57:23.812Z,199.79
2023-04-11T10:58:23.816Z,202.04
2023-04-11T10:59:23.818Z,200.38
2023-04-11T11:00:23.836Z,202.14
2023-04-11T11:01:32.070Z,202.97
2023-04-11T11:02:24.937Z,202.87
2023-04-11T11:03:23.861Z,200.38
2023-04-11T11:04:23.796Z,194.39
2023-04-11T11:05:23.738Z,190.30
2023-04-11T11:06:23.754Z,187.41
2023-04-11T11:07:23.741Z,182.98
2023-04-11T11:08:23.732Z,179.39
2023-04-11T11:09:23.777Z,175.17
2023-04-11T11:10:23.700Z,172.53
2023-04-11T11:11:23.764Z,171.35
2023-04-11T11:12:23.675Z,169.86
2023-04-11T11:13:23.684Z,166.11
2023-04-11T11:14:23.755Z,163.92
2023-04-11T11:15:23.797Z,160.84
2023-04-11T11:16:23.911Z,159.42
2023-04-11T11:17:23.981Z,151.01
2023-04-11T11:18:24.017Z,144.67
2023-04-11T11:19:24.118Z,141.61
2023-04-11T11:20:24.152Z,135.68
2023-04-11T11:21:27.358Z,118.46
2023-04-11T11:22:24.151Z,97.08
2023-04-11T11:23:24.181Z,82.27
2023-04-11T11:24:24.314Z,69.21
2023-04-11T11:25:24.172Z,52.60
2023-04-11T11:26:24.202Z,39.36
2023-04-11T11:27:24.206Z,35.41
2023-04-11T11:28:24.129Z,31.31
2023-04-11T11:29:24.194Z,28.15
2023-04-11T11:30:24.122Z,22.52
2023-04-11T11:31:24.240Z,25.00
2023-04-11T11:32:24.183Z,25.00
2023-04-11T11:33:24.102Z,25.00
2023-04-11T11:34:24.381Z,24.13
2023-04-11T11:35:24.133Z,25.00
2023-04-11T11:36:24.101Z,25.00
2023-04-11T11:37:24.064Z,26.09
2023-04-11T11:38:24.093Z,25.87
2023-04-11T11:39:24.095Z,25.96
2023-04-11T11:40:24.082Z,26.19
2023-04-11T11:41:24.052Z,25.00
2023-04-11T11:42:24.069Z,24.89
2023-04-11T11:43:24.064Z,23.02
2023-04-11T11:44:24.019Z,25.00
2023-04-11T11:46:24.035Z,25.00
2023-04-11T11:47:24.139Z,26.35
2023-04-11T11:48:24.078Z,30.59
2023-04-11T11:49:24.052Z,30.13
2023-04-11T11:50:24.008Z,29.74
2023-04-11T11:51:23.977Z,31.53
2023-04-11T11:52:23.986Z,30.36
2023-04-11T11:53:23.997Z,28.62
2023-04-11T11:54:23.961Z,29.59
2023-04-11T11:55:24.002Z,29.90
2023-04-11T11:56:23.949Z,27.50
2023-04-11T11:57:23.924Z,24.82
2023-04-11T11:58:23.930Z,25.00
2023-04-11T11:59:24.274Z,25.26
2023-04-11T12:00:23.949Z,22.39
2023-04-11T12:01:23.995Z,25.00
2023-04-11T12:02:24.013Z,25.00
2023-04-11T12:03:24.134Z,42.02
2023-04-11T12:04:24.180Z,54.77
2023-04-11T12:05:24.102Z,60.18
2023-04-11T12:06:24.134Z,53.38
2023-04-11T12:07:24.222Z,56.71
2023-04-11T12:08:24.251Z,64.09
2023-04-11T12:09:24.329Z,70.09
2023-04-11T12:10:24.350Z,71.84
2023-04-11T12:11:24.466Z,68.78
2023-04-11T12:12:24.517Z,62.57
2023-04-11T12:13:24.545Z,62.42
2023-04-11T12:14:24.608Z,60.39
2023-04-11T12:15:24.702Z,66.24
2023-04-11T12:16:24.796Z,66.85
2023-04-11T12:17:24.809Z,69.95
2023-04-11T12:18:24.859Z,69.45
2023-04-11T12:19:24.897Z,72.57
2023-04-11T12:20:24.909Z,78.41
2023-04-11T12:21:24.944Z,82.09
2023-04-11T12:22:25.093Z,86.18
2023-04-11T12:23:25.063Z,93.18
2023-04-11T12:24:25.090Z,97.23
2023-04-11T12:25:25.097Z,105.24
2023-04-11T12:26:25.137Z,103.03
2023-04-11T12:27:25.322Z,106.24
2023-04-11T12:28:25.220Z,113.69
2023-04-11T12:29:26.391Z,123.38
2023-04-11T12:30:25.217Z,121.83
2023-04-11T12:31:25.337Z,123.78
2023-04-11T12:32:25.273Z,124.04
2023-04-11T12:33:25.258Z,130.64
2023-04-11T12:34:25.277Z,134.74
2023-04-11T12:35:25.311Z,133.01
2023-04-11T12:36:25.339Z,132.85
2023-04-11T12:37:25.296Z,135.87
2023-04-11T12:38:25.297Z,139.62
2023-04-11T12:39:25.331Z,141.23
2023-04-11T12:40:25.361Z,144.11